Helm, California
Current Conditions -  °F | °C
As of 8:56 AM on Thursday 30 Oct 2014 (Local Time) from KNLC Reporting Station
Haze Haze  
Wind Chill: 13°   Ceiling: 16000
Heat Index: 13°   Visibility: 4mi
Dew Point:   Wind: 6mph
Humidity: 67%   Direction: 130°SE
Pressure: 29.98"   Gusts: NA
Location:  36.53°N, 120.1°W
Report Text: KNLC 301556Z 13005KT 4SM HZ BKN160 BKN220 13/07 A2998 RMK AO2 SLP152 VIS SE 1 1/2SM RH/66 T01280067 $
Loading
Personal Weather Stations






























Interactive Weather Map
Tropical Storm Tracking
New forecast layout! Learn more

10-Day Weather Forecast

Advertisements
Track Severe Weather on mobile